createdAt,value
2019-05-17T00:00:43.194Z,13.40
2019-05-17T00:03:13.655Z,13.50
2019-05-17T00:05:41.746Z,13.50
2019-05-17T00:08:09.471Z,13.40
2019-05-17T00:10:37.733Z,13.40
2019-05-17T00:13:07.667Z,13.40
2019-05-17T00:15:36.687Z,13.40
2019-05-17T00:18:06.695Z,13.30
2019-05-17T00:20:34.099Z,13.40
2019-05-17T00:23:01.794Z,13.30
2019-05-17T00:25:29.492Z,13.40
2019-05-17T00:27:57.675Z,13.40
2019-05-17T00:30:26.610Z,13.40
2019-05-17T00:32:56.788Z,13.40
2019-05-17T00:35:24.114Z,13.40
2019-05-17T00:37:52.205Z,13.30
2019-05-17T00:40:20.118Z,13.30
2019-05-17T00:42:47.783Z,13.30
2019-05-17T00:45:17.538Z,13.20
2019-05-17T00:47:46.761Z,13.20
2019-05-17T00:50:17.234Z,13.20
2019-05-17T00:52:47.250Z,13.10
2019-05-17T00:55:17.294Z,13.10
2019-05-17T00:57:44.399Z,13.10
2019-05-17T01:00:12.316Z,13.10
2019-05-17T01:02:39.990Z,13.10
2019-05-17T01:05:08.011Z,13.10
2019-05-17T01:07:37.683Z,13.10
2019-05-17T01:10:07.030Z,13.00
2019-05-17T01:12:36.545Z,13.10
2019-05-17T01:15:07.441Z,13.00
2019-05-17T01:17:36.538Z,13.00
2019-05-17T01:20:06.850Z,12.90
2019-05-17T01:22:36.717Z,12.90
2019-05-17T01:25:06.367Z,12.90
2019-05-17T01:27:34.169Z,12.90
2019-05-17T01:30:01.962Z,12.80
2019-05-17T01:32:29.625Z,12.70
2019-05-17T01:34:57.338Z,12.70
2019-05-17T01:37:27.533Z,12.60
2019-05-17T01:39:54.525Z,12.70
2019-05-17T01:42:22.239Z,12.60
2019-05-17T01:44:49.918Z,12.60
2019-05-17T01:47:17.632Z,12.50
2019-05-17T01:49:46.967Z,12.50
2019-05-17T01:52:16.741Z,12.40
2019-05-17T01:54:46.778Z,12.30
2019-05-17T01:57:13.915Z,12.20
2019-05-17T01:59:41.610Z,12.20
2019-05-17T02:02:13.509Z,12.20
2019-05-17T02:04:41.192Z,12.20
2019-05-17T02:07:08.895Z,12.10
2019-05-17T02:09:40.695Z,12.10
2019-05-17T02:12:06.700Z,12.00
2019-05-17T02:14:34.675Z,12.00
2019-05-17T02:17:02.371Z,11.90
2019-05-17T02:19:30.065Z,11.90
2019-05-17T02:21:57.748Z,11.90
2019-05-17T02:24:27.450Z,11.90
2019-05-17T02:26:57.044Z,11.90
2019-05-17T02:29:24.821Z,11.90
2019-05-17T02:31:52.715Z,11.90
2019-05-17T02:34:23.240Z,12.00
2019-05-17T02:36:53.175Z,12.20
2019-05-17T02:39:22.956Z,12.20
2019-05-17T02:41:49.352Z,12.10
2019-05-17T02:44:17.059Z,12.10
2019-05-17T02:46:44.762Z,12.10
2019-05-17T02:49:13.726Z,12.00
2019-05-17T02:51:43.184Z,12.00
2019-05-17T02:54:13.240Z,12.00
2019-05-17T02:56:43.637Z,12.10
2019-05-17T02:59:13.383Z,12.00
2019-05-17T03:01:43.880Z,12.00
2019-05-17T03:04:12.828Z,11.90
2019-05-17T03:06:52.967Z,11.90
2019-05-17T03:09:18.355Z,11.90
2019-05-17T03:11:46.180Z,11.80
2019-05-17T03:14:13.915Z,11.80
2019-05-17T03:16:43.088Z,11.80
2019-05-17T03:19:13.067Z,11.70
2019-05-17T03:21:42.866Z,11.80
2019-05-17T03:24:13.350Z,11.70
2019-05-17T03:26:42.718Z,11.80
2019-05-17T03:29:09.224Z,11.70
2019-05-17T03:31:53.353Z,11.60
2019-05-17T03:34:18.005Z,11.60
2019-05-17T03:36:47.190Z,11.60
2019-05-17T03:39:15.222Z,11.60
2019-05-17T03:41:43.050Z,11.60
2019-05-17T03:44:13.539Z,11.60
2019-05-17T03:46:42.584Z,11.50
2019-05-17T03:49:13.110Z,11.50
2019-05-17T03:51:42.588Z,11.40
2019-05-17T03:54:13.487Z,11.40
2019-05-17T03:56:42.497Z,11.40
2019-05-17T03:59:08.976Z,11.30
2019-05-17T04:01:36.704Z,11.20
2019-05-17T04:04:04.386Z,11.20
2019-05-17T04:06:32.906Z,11.20
2019-05-17T04:09:03.723Z,11.20
2019-05-17T04:11:35.611Z,11.20
2019-05-17T04:14:03.079Z,11.30
2019-05-17T04:16:33.670Z,11.30
2019-05-17T04:19:02.820Z,11.40
2019-05-17T04:21:29.342Z,11.30
2019-05-17T04:23:57.019Z,11.30
2019-05-17T04:26:24.712Z,11.20
2019-05-17T04:28:53.263Z,11.30
2019-05-17T04:31:22.742Z,11.20
2019-05-17T04:33:53.599Z,11.10
2019-05-17T04:36:22.535Z,11.10
2019-05-17T04:38:52.599Z,11.10
2019-05-17T04:41:36.226Z,11.10
2019-05-17T04:43:49.000Z,11.10
2019-05-17T04:46:16.685Z,11.20
2019-05-17T04:48:44.371Z,11.30
2019-05-17T04:51:13.243Z,11.30
2019-05-17T04:53:43.022Z,11.30
2019-05-17T04:56:14.136Z,11.30
2019-05-17T04:58:42.968Z,11.20
2019-05-17T05:01:13.638Z,11.30
2019-05-17T05:03:43.033Z,11.30
2019-05-17T05:06:26.493Z,11.30
2019-05-17T05:08:54.174Z,11.40
2019-05-17T05:11:23.356Z,11.50
2019-05-17T05:13:53.131Z,11.60
2019-05-17T05:16:22.787Z,11.60
2019-05-17T05:18:52.095Z,11.60
2019-05-17T05:21:22.838Z,11.70
2019-05-17T05:23:51.702Z,11.70
2019-05-17T05:26:19.662Z,11.80
2019-05-17T05:28:49.665Z,11.90
2019-05-17T05:31:16.840Z,11.90
2019-05-17T05:33:44.823Z,12.10
2019-05-17T05:36:13.839Z,12.20
2019-05-17T05:38:42.269Z,12.30
2019-05-17T05:41:12.177Z,12.30
2019-05-17T05:43:41.825Z,12.30
2019-05-17T05:46:11.534Z,12.50
2019-05-17T05:48:38.743Z,12.50
2019-05-17T05:51:06.515Z,12.60
2019-05-17T05:53:34.463Z,12.80
2019-05-17T05:56:03.140Z,12.90
2019-05-17T05:58:32.195Z,13.00
2019-05-17T06:01:02.782Z,13.30
2019-05-17T06:03:32.271Z,13.40
2019-05-17T06:06:01.804Z,13.70
2019-05-17T06:08:31.757Z,14.00
2019-05-17T06:11:01.933Z,14.30
2019-05-17T06:13:28.544Z,14.60
2019-05-17T06:15:56.579Z,14.70
2019-05-17T06:18:24.255Z,14.90
2019-05-17T06:20:52.495Z,15.00
2019-05-17T06:23:20.460Z,15.20
2019-05-17T06:25:48.328Z,15.30
2019-05-17T06:28:16.044Z,15.40
2019-05-17T06:30:43.743Z,15.40
2019-05-17T06:33:13.355Z,15.50
2019-05-17T06:35:42.242Z,15.40
2019-05-17T06:38:12.057Z,15.50
2019-05-17T06:40:42.082Z,15.50
2019-05-17T06:43:12.803Z,15.50
2019-05-17T06:45:41.662Z,15.50
2019-05-17T06:48:08.760Z,15.60
2019-05-17T06:50:36.528Z,15.60
2019-05-17T06:53:04.323Z,15.60
2019-05-17T06:55:32.020Z,15.60
2019-05-17T06:58:01.688Z,15.60
2019-05-17T07:00:29.872Z,15.70
2019-05-17T07:03:00.553Z,15.70
2019-05-17T07:05:30.635Z,15.80
2019-05-17T07:08:00.291Z,16.00
2019-05-17T07:10:30.062Z,16.00
2019-05-17T07:12:59.594Z,16.10
2019-05-17T07:15:42.720Z,16.20
2019-05-17T07:17:56.529Z,16.20
2019-05-17T07:20:24.307Z,16.30
2019-05-17T07:22:52.041Z,16.50
2019-05-17T07:25:19.904Z,16.60
2019-05-17T07:27:50.097Z,16.70
2019-05-17T07:30:19.503Z,16.80
2019-05-17T07:32:49.619Z,17.00
2019-05-17T07:35:17.047Z,17.00
2019-05-17T07:37:44.794Z,17.10
2019-05-17T07:40:12.951Z,17.10
2019-05-17T07:42:40.673Z,17.00
2019-05-17T07:45:10.051Z,16.90
2019-05-17T07:47:40.539Z,16.90
2019-05-17T07:50:11.379Z,16.80
2019-05-17T07:52:39.743Z,16.80
2019-05-17T07:55:11.003Z,16.70
2019-05-17T07:57:41.074Z,16.50
2019-05-17T08:00:10.693Z,16.40
2019-05-17T08:02:40.148Z,16.30
2019-05-17T08:05:10.097Z,16.20
2019-05-17T08:07:40.237Z,16.20
2019-05-17T08:10:10.912Z,16.10
2019-05-17T08:12:40.572Z,16.10
2019-05-17T08:15:13.943Z,16.10
2019-05-17T08:17:46.090Z,16.10
2019-05-17T08:20:13.987Z,16.00
2019-05-17T08:22:42.462Z,15.80
2019-05-17T08:25:10.638Z,15.70
2019-05-17T08:27:40.472Z,15.70
2019-05-17T08:30:20.091Z,15.60
2019-05-17T08:32:56.402Z,15.50
2019-05-17T08:35:24.917Z,15.40
2019-05-17T08:37:53.421Z,15.20
2019-05-17T08:40:21.105Z,15.00
2019-05-17T08:42:49.992Z,14.90
2019-05-17T08:45:20.656Z,14.80
2019-05-17T08:47:50.012Z,14.50
2019-05-17T08:50:20.015Z,14.30
2019-05-17T08:52:49.547Z,14.00
2019-05-17T08:55:20.448Z,13.70
2019-05-17T08:57:50.010Z,13.40
2019-05-17T09:00:21.532Z,13.10
2019-05-17T09:02:50.018Z,12.90
2019-05-17T09:05:21.200Z,12.70
2019-05-17T09:07:49.349Z,12.60
2019-05-17T09:10:17.516Z,12.40
2019-05-17T09:12:45.264Z,12.30
2019-05-17T09:15:13.046Z,12.20
2019-05-17T09:17:40.792Z,12.10
2019-05-17T09:20:10.892Z,11.90
2019-05-17T09:22:39.684Z,11.90
2019-05-17T09:25:13.555Z,11.90
2019-05-17T09:27:39.669Z,11.80
2019-05-17T09:30:09.500Z,11.80
2019-05-17T09:32:40.136Z,11.70
2019-05-17T09:35:09.794Z,11.80
2019-05-17T09:37:36.813Z,11.70
2019-05-17T09:40:05.818Z,11.70
2019-05-17T09:42:33.497Z,11.70
2019-05-17T09:45:01.608Z,11.70
2019-05-17T09:47:41.565Z,11.70
2019-05-17T09:50:10.457Z,11.80
2019-05-17T09:52:52.434Z,11.80
2019-05-17T09:55:19.578Z,11.80
2019-05-17T09:57:49.592Z,11.80
2019-05-17T10:00:17.595Z,11.90
2019-05-17T10:02:45.286Z,11.90
2019-05-17T10:05:13.358Z,11.90
2019-05-17T10:07:41.403Z,11.90
2019-05-17T10:10:10.512Z,12.00
2019-05-17T10:12:40.285Z,12.10
2019-05-17T10:15:10.124Z,12.30
2019-05-17T10:17:38.241Z,12.30
2019-05-17T10:20:07.301Z,12.50
2019-05-17T10:22:35.088Z,12.60
2019-05-17T10:25:02.924Z,12.80
2019-05-17T10:27:30.715Z,13.00
2019-05-17T10:29:59.513Z,13.20
2019-05-17T10:32:27.337Z,13.40
2019-05-17T10:34:55.066Z,13.70
2019-05-17T10:37:22.760Z,14.10
2019-05-17T10:39:50.588Z,14.40
2019-05-17T10:42:20.750Z,14.80
2019-05-17T10:44:51.315Z,15.20
2019-05-17T10:47:19.546Z,15.50
2019-05-17T10:49:49.510Z,15.60
2019-05-17T10:52:16.927Z,15.80
2019-05-17T10:54:44.905Z,15.70
2019-05-17T10:57:12.639Z,15.70
2019-05-17T10:59:40.349Z,15.40
2019-05-17T11:02:09.952Z,15.50
2019-05-17T11:04:40.041Z,15.60
2019-05-17T11:07:07.077Z,15.80
2019-05-17T11:09:34.784Z,16.00
2019-05-17T11:12:02.538Z,16.20
2019-05-17T11:14:30.321Z,16.50
2019-05-17T11:16:58.036Z,16.80
2019-05-17T11:19:25.774Z,17.20
2019-05-17T11:21:53.492Z,17.50
2019-05-17T11:24:21.160Z,17.60
2019-05-17T11:26:49.076Z,17.80
2019-05-17T11:29:16.781Z,18.00
2019-05-17T11:31:44.484Z,18.20
2019-05-17T11:34:12.222Z,18.50
2019-05-17T11:36:39.951Z,18.50
2019-05-17T11:39:07.720Z,18.30
2019-05-17T11:41:35.455Z,18.20
2019-05-17T11:44:03.310Z,18.20
2019-05-17T11:46:36.338Z,18.10
2019-05-17T11:49:00.592Z,18.20
2019-05-17T11:51:28.308Z,18.30
2019-05-17T11:53:56.003Z,18.70
2019-05-17T11:56:23.724Z,19.10
2019-05-17T11:58:51.436Z,19.20
2019-05-17T12:01:19.266Z,19.10
2019-05-17T12:03:47.281Z,18.90
2019-05-17T12:06:15.205Z,18.70
2019-05-17T12:08:42.914Z,18.50
2019-05-17T12:11:10.775Z,18.30
2019-05-17T12:13:38.470Z,18.20
2019-05-17T12:16:06.173Z,18.20
2019-05-17T12:18:33.852Z,18.20
2019-05-17T12:21:01.557Z,18.30
2019-05-17T12:23:29.292Z,18.50
2019-05-17T12:25:56.995Z,18.70
2019-05-17T12:28:26.609Z,18.80
2019-05-17T12:30:54.364Z,18.80
2019-05-17T12:33:22.049Z,18.70
2019-05-17T12:35:49.772Z,18.70
2019-05-17T12:38:17.996Z,19.00
2019-05-17T12:40:45.716Z,19.20
2019-05-17T12:43:13.449Z,19.30
2019-05-17T12:45:42.196Z,19.20
2019-05-17T12:48:09.903Z,19.20
2019-05-17T12:50:37.684Z,19.30
2019-05-17T12:53:05.645Z,19.20
2019-05-17T12:55:33.357Z,19.20
2019-05-17T12:58:02.435Z,19.30
2019-05-17T13:00:31.140Z,19.10
2019-05-17T13:02:59.176Z,18.90
2019-05-17T13:05:26.899Z,18.80
2019-05-17T13:07:54.645Z,18.90
2019-05-17T13:10:22.357Z,18.90
2019-05-17T13:12:50.040Z,18.90
2019-05-17T13:15:18.073Z,18.70
2019-05-17T13:17:45.774Z,18.30
2019-05-17T13:20:13.830Z,18.10
2019-05-17T13:22:41.891Z,17.80
2019-05-17T13:25:09.692Z,17.40
2019-05-17T13:27:39.163Z,17.10
2019-05-17T13:30:07.674Z,16.90
2019-05-17T13:32:35.570Z,16.90
2019-05-17T13:35:03.578Z,16.90
2019-05-17T13:37:31.312Z,16.90
2019-05-17T13:39:58.992Z,16.90
2019-05-17T13:42:26.867Z,16.90
2019-05-17T13:44:54.683Z,17.00
2019-05-17T13:47:22.477Z,16.90
2019-05-17T13:49:50.187Z,16.80
2019-05-17T13:52:17.904Z,16.60
2019-05-17T13:54:45.626Z,16.50
2019-05-17T13:57:13.411Z,16.40
2019-05-17T13:59:41.158Z,16.40
2019-05-17T14:02:08.852Z,16.40
2019-05-17T14:04:36.527Z,16.30
2019-05-17T14:07:04.300Z,16.20
2019-05-17T14:09:32.031Z,16.00
2019-05-17T14:11:59.788Z,16.00
2019-05-17T14:14:27.521Z,16.00
2019-05-17T14:16:55.214Z,15.90
2019-05-17T14:19:22.928Z,15.80
2019-05-17T14:21:50.675Z,15.80
2019-05-17T14:24:18.383Z,15.70
2019-05-17T14:26:46.085Z,15.60
2019-05-17T14:29:13.788Z,15.50
2019-05-17T14:31:41.547Z,15.40
2019-05-17T14:34:09.224Z,15.30
2019-05-17T14:36:36.941Z,15.10
2019-05-17T14:39:06.357Z,14.80
2019-05-17T14:41:34.029Z,14.70
2019-05-17T14:44:01.740Z,14.60
2019-05-17T14:46:29.856Z,14.50
2019-05-17T14:48:57.588Z,14.50
2019-05-17T14:51:25.288Z,14.40
2019-05-17T14:53:53.031Z,14.50
2019-05-17T14:56:20.716Z,14.50
2019-05-17T14:58:48.439Z,14.50
2019-05-17T15:01:16.301Z,14.60
2019-05-17T15:03:44.022Z,14.50
2019-05-17T15:06:11.843Z,14.40
2019-05-17T15:08:39.572Z,14.30
2019-05-17T15:11:07.368Z,14.20
2019-05-17T15:13:35.121Z,14.20
2019-05-17T15:16:03.323Z,14.20
2019-05-17T15:18:31.005Z,14.10
2019-05-17T15:21:01.671Z,13.90
2019-05-17T15:23:29.712Z,13.70
2019-05-17T15:25:58.492Z,13.50
2019-05-17T15:28:27.226Z,13.50
2019-05-17T15:30:56.736Z,13.30
2019-05-17T15:33:24.438Z,13.20
2019-05-17T15:35:52.237Z,13.20
2019-05-17T15:38:20.523Z,13.20
2019-05-17T15:40:50.039Z,13.40
2019-05-17T15:43:17.700Z,13.40
2019-05-17T15:45:45.447Z,13.50
2019-05-17T15:48:13.530Z,13.60
2019-05-17T15:50:41.275Z,13.70
2019-05-17T15:53:08.987Z,13.80
2019-05-17T15:55:45.711Z,13.70
2019-05-17T15:58:13.437Z,13.60
2019-05-17T16:00:41.084Z,13.60
2019-05-17T16:03:08.793Z,13.60
2019-05-17T16:05:36.585Z,13.60
2019-05-17T16:08:04.310Z,13.50
2019-05-17T16:10:31.985Z,13.40
2019-05-17T16:13:02.953Z,13.40
2019-05-17T16:15:29.189Z,13.40
2019-05-17T16:17:56.912Z,13.30
2019-05-17T16:20:24.631Z,13.30
2019-05-17T16:22:52.309Z,13.40
2019-05-17T16:25:20.013Z,13.40
2019-05-17T16:27:47.723Z,13.30
2019-05-17T16:30:15.543Z,13.30
2019-05-17T16:32:43.245Z,13.30
2019-05-17T16:35:11.046Z,13.40
2019-05-17T16:37:38.717Z,13.40
2019-05-17T16:40:07.335Z,13.50
2019-05-17T16:42:35.071Z,13.60
2019-05-17T16:45:02.911Z,13.60
2019-05-17T16:47:30.583Z,13.50
2019-05-17T16:49:58.360Z,13.40
2019-05-17T16:52:26.068Z,13.30
2019-05-17T16:54:53.834Z,13.30
2019-05-17T16:57:21.582Z,13.30
2019-05-17T16:59:49.264Z,13.30
2019-05-17T17:02:16.948Z,13.40
2019-05-17T17:04:44.654Z,13.50
2019-05-17T17:07:12.328Z,13.50
2019-05-17T17:09:40.079Z,13.50
2019-05-17T17:12:07.795Z,13.50
2019-05-17T17:14:35.888Z,13.50
2019-05-17T17:17:18.122Z,13.60
2019-05-17T17:19:44.226Z,13.70
2019-05-17T17:22:12.602Z,13.60
2019-05-17T17:24:40.337Z,13.70
2019-05-17T17:27:08.443Z,13.70
2019-05-17T17:29:36.209Z,13.70
2019-05-17T17:32:03.971Z,13.70
2019-05-17T17:34:31.656Z,13.70
2019-05-17T17:36:59.540Z,13.70
2019-05-17T17:39:27.240Z,13.60
2019-05-17T17:41:54.943Z,13.50
2019-05-17T17:44:23.450Z,13.50
2019-05-17T17:46:51.541Z,13.40
2019-05-17T17:49:19.265Z,13.40
2019-05-17T17:51:47.036Z,13.30
2019-05-17T17:54:14.921Z,13.30
2019-05-17T17:56:42.561Z,13.30
2019-05-17T17:59:10.669Z,13.30
2019-05-17T18:01:38.330Z,13.30
2019-05-17T18:04:06.053Z,13.30
2019-05-17T18:06:33.879Z,13.30
2019-05-17T18:09:01.602Z,13.20
2019-05-17T18:11:29.331Z,13.20
2019-05-17T18:14:11.131Z,13.20
2019-05-17T18:16:27.028Z,13.10
2019-05-17T18:18:54.797Z,13.10
2019-05-17T18:21:22.483Z,13.10
2019-05-17T18:23:50.266Z,13.10
2019-05-17T18:26:17.960Z,13.10
2019-05-17T18:28:45.930Z,13.10
2019-05-17T18:31:13.667Z,13.00
2019-05-17T18:33:41.370Z,13.00
2019-05-17T18:36:09.075Z,13.00
2019-05-17T18:38:37.882Z,12.90
2019-05-17T18:41:06.160Z,12.90
2019-05-17T18:43:33.959Z,12.90
2019-05-17T18:46:01.902Z,12.80
2019-05-17T18:48:29.602Z,12.80
2019-05-17T18:50:57.275Z,12.90
2019-05-17T18:53:25.048Z,12.90
2019-05-17T18:55:52.746Z,12.90
2019-05-17T18:58:20.516Z,12.90
2019-05-17T19:00:48.267Z,12.90
2019-05-17T19:03:15.979Z,12.90
2019-05-17T19:05:45.407Z,12.80
2019-05-17T19:08:13.254Z,12.80
2019-05-17T19:10:40.946Z,12.80
2019-05-17T19:13:09.364Z,12.80
2019-05-17T19:15:37.059Z,12.80
2019-05-17T19:18:04.766Z,12.80
2019-05-17T19:20:32.455Z,12.80
2019-05-17T19:23:00.174Z,12.80
2019-05-17T19:25:27.997Z,12.70
2019-05-17T19:27:55.696Z,12.70
2019-05-17T19:30:23.608Z,12.70
2019-05-17T19:32:51.431Z,12.70
2019-05-17T19:35:19.209Z,12.70
2019-05-17T19:37:46.922Z,12.60
2019-05-17T19:40:15.053Z,12.60
2019-05-17T19:42:42.731Z,12.60
2019-05-17T19:45:11.636Z,12.60
2019-05-17T19:47:39.747Z,12.50
2019-05-17T19:50:08.756Z,12.50
2019-05-17T19:52:38.409Z,12.50
2019-05-17T19:55:06.952Z,12.50
2019-05-17T19:57:34.733Z,12.50
2019-05-17T20:00:02.473Z,12.50
2019-05-17T20:02:30.184Z,12.50
2019-05-17T20:04:57.902Z,12.50
2019-05-17T20:07:25.696Z,12.50
2019-05-17T20:09:53.471Z,12.50
2019-05-17T20:12:21.156Z,12.50
2019-05-17T20:14:48.880Z,12.50
2019-05-17T20:17:16.576Z,12.50
2019-05-17T20:19:44.279Z,12.40
2019-05-17T20:22:12.152Z,12.40
2019-05-17T20:24:39.862Z,12.30
2019-05-17T20:27:07.668Z,12.40
2019-05-17T20:29:35.353Z,12.30
2019-05-17T20:32:03.361Z,12.30
2019-05-17T20:34:31.092Z,12.30
2019-05-17T20:36:58.784Z,12.40
2019-05-17T20:39:26.900Z,12.40
2019-05-17T20:41:57.353Z,12.30
2019-05-17T20:44:24.171Z,12.30
2019-05-17T20:46:52.250Z,12.30
2019-05-17T20:49:19.946Z,12.20
2019-05-17T20:51:47.645Z,12.20
2019-05-17T20:54:15.336Z,12.20
2019-05-17T20:56:43.138Z,12.10
2019-05-17T20:59:10.832Z,12.20
2019-05-17T21:01:38.547Z,12.10
2019-05-17T21:04:06.619Z,12.10
2019-05-17T21:06:34.342Z,12.10
2019-05-17T21:09:02.019Z,12.10
2019-05-17T21:11:29.731Z,12.10
2019-05-17T21:13:57.401Z,12.10
2019-05-17T21:16:25.155Z,12.00
2019-05-17T21:18:52.830Z,12.00
2019-05-17T21:21:20.515Z,12.00
2019-05-17T21:23:48.495Z,12.00
2019-05-17T21:26:16.183Z,12.00
2019-05-17T21:28:47.068Z,12.00
2019-05-17T21:31:13.851Z,11.90
2019-05-17T21:33:41.559Z,11.90
2019-05-17T21:36:09.244Z,11.90
2019-05-17T21:38:36.920Z,11.90
2019-05-17T21:41:04.704Z,12.00
2019-05-17T21:43:32.387Z,12.00
2019-05-17T21:46:04.291Z,11.90
2019-05-17T21:48:32.091Z,11.90
2019-05-17T21:50:59.775Z,11.90
2019-05-17T21:53:27.540Z,11.90
2019-05-17T21:55:55.263Z,11.90
2019-05-17T21:58:22.932Z,11.90
2019-05-17T22:01:24.705Z,11.90
2019-05-17T22:03:52.519Z,11.80
2019-05-17T22:06:20.888Z,11.90
2019-05-17T22:08:48.832Z,11.80
2019-05-17T22:11:16.519Z,11.70
2019-05-17T22:13:44.325Z,11.70
2019-05-17T22:16:24.208Z,11.70
2019-05-17T22:18:51.892Z,11.70
2019-05-17T22:21:19.622Z,11.70
2019-05-17T22:23:47.303Z,11.70
2019-05-17T22:26:15.331Z,11.70
2019-05-17T22:28:43.009Z,11.70
2019-05-17T22:31:10.724Z,11.80
2019-05-17T22:33:38.432Z,11.80
2019-05-17T22:36:06.110Z,11.80
2019-05-17T22:38:33.798Z,11.80
2019-05-17T22:41:01.513Z,11.80
2019-05-17T22:43:29.253Z,11.80
2019-05-17T22:45:56.923Z,11.80
2019-05-17T22:48:24.595Z,11.80
2019-05-17T22:50:52.282Z,11.80
2019-05-17T22:53:20.824Z,11.80
2019-05-17T22:55:48.579Z,11.80
2019-05-17T22:58:16.307Z,11.80
2019-05-17T23:00:44.374Z,11.80
2019-05-17T23:03:12.072Z,11.80
2019-05-17T23:05:40.043Z,11.80
2019-05-17T23:08:07.743Z,11.80
2019-05-17T23:10:35.471Z,11.80
2019-05-17T23:13:03.177Z,11.80
2019-05-17T23:15:34.240Z,11.80
2019-05-17T23:18:02.070Z,11.70
2019-05-17T23:20:29.772Z,11.70
2019-05-17T23:22:57.472Z,11.70
2019-05-17T23:25:25.178Z,11.70
2019-05-17T23:27:52.884Z,11.70
2019-05-17T23:30:20.571Z,11.70
2019-05-17T23:32:48.256Z,11.70
2019-05-17T23:35:15.939Z,11.70
2019-05-17T23:37:43.896Z,11.70
2019-05-17T23:40:11.788Z,11.70
2019-05-17T23:42:39.466Z,11.70
2019-05-17T23:45:07.391Z,11.70
2019-05-17T23:47:35.053Z,11.60
2019-05-17T23:50:03.176Z,11.60
2019-05-17T23:52:30.855Z,11.50
2019-05-17T23:54:58.548Z,11.50
2019-05-17T23:57:26.302Z,11.50
2019-05-17T23:59:53.971Z,11.40
